sensor_id;sensor_type;location;lat;lon;timestamp;temperature;humidity
66710;DHT22;53624;0.000;0.000;2023-05-10T00:01:02;18.90;99.90
66710;DHT22;53624;0.000;0.000;2023-05-10T00:03:30;18.90;99.90
66710;DHT22;53624;0.000;0.000;2023-05-10T00:05:57;18.90;99.90
66710;DHT22;53624;0.000;0.000;2023-05-10T00:08:24;18.90;99.90
66710;DHT22;53624;0.000;0.000;2023-05-10T00:10:52;18.80;99.90
66710;DHT22;53624;0.000;0.000;2023-05-10T00:13:20;18.80;99.90
66710;DHT22;53624;0.000;0.000;2023-05-10T00:15:47;18.80;99.90
66710;DHT22;53624;0.000;0.000;2023-05-10T00:18:16;18.80;99.90
66710;DHT22;53624;0.000;0.000;2023-05-10T00:20:43;18.80;99.90
66710;DHT22;53624;0.000;0.000;2023-05-10T00:23:12;18.80;99.90
66710;DHT22;53624;0.000;0.000;2023-05-10T00:25:39;18.80;99.90
66710;DHT22;53624;0.000;0.000;2023-05-10T00:28:06;18.70;99.90
66710;DHT22;53624;0.000;0.000;2023-05-10T00:30:34;18.70;99.90
66710;DHT22;53624;0.000;0.000;2023-05-10T00:33:01;18.70;99.90
66710;DHT22;53624;0.000;0.000;2023-05-10T00:35:30;18.70;99.90
66710;DHT22;53624;0.000;0.000;2023-05-10T00:37:58;18.70;99.90
66710;DHT22;53624;0.000;0.000;2023-05-10T00:40:25;18.70;99.90
66710;DHT22;53624;0.000;0.000;2023-05-10T00:42:57;18.70;99.90
66710;DHT22;53624;0.000;0.000;2023-05-10T00:45:25;18.70;99.90
66710;DHT22;53624;0.000;0.000;2023-05-10T00:47:53;18.70;99.90
66710;DHT22;53624;0.000;0.000;2023-05-10T00:50:21;18.70;99.90
66710;DHT22;53624;0.000;0.000;2023-05-10T00:52:50;18.60;99.90
66710;DHT22;53624;0.000;0.000;2023-05-10T00:55:18;18.60;99.90
66710;DHT22;53624;0.000;0.000;2023-05-10T00:57:46;18.60;99.90
66710;DHT22;53624;0.000;0.000;2023-05-10T01:00:14;18.60;99.90
66710;DHT22;53624;0.000;0.000;2023-05-10T01:02:44;18.60;99.90
66710;DHT22;53624;0.000;0.000;2023-05-10T01:05:12;18.60;99.90
66710;DHT22;53624;0.000;0.000;2023-05-10T01:07:39;18.60;99.90
66710;DHT22;53624;0.000;0.000;2023-05-10T01:10:09;18.60;99.90
66710;DHT22;53624;0.000;0.000;2023-05-10T01:12:37;18.60;99.90
66710;DHT22;53624;0.000;0.000;2023-05-10T01:15:06;18.60;99.90
66710;DHT22;53624;0.000;0.000;2023-05-10T01:17:34;18.50;99.90
66710;DHT22;53624;0.000;0.000;2023-05-10T01:20:02;18.50;99.90
66710;DHT22;53624;0.000;0.000;2023-05-10T01:22:36;18.50;99.90
66710;DHT22;53624;0.000;0.000;2023-05-10T01:25:27;18.50;99.90
66710;DHT22;53624;0.000;0.000;2023-05-10T01:28:15;18.50;99.90
66710;DHT22;53624;0.000;0.000;2023-05-10T01:30:55;18.50;99.90
66710;DHT22;53624;0.000;0.000;2023-05-10T01:33:29;18.50;99.90
66710;DHT22;53624;0.000;0.000;2023-05-10T01:35:59;18.50;99.90
66710;DHT22;53624;0.000;0.000;2023-05-10T01:38:33;18.40;99.90
66710;DHT22;53624;0.000;0.000;2023-05-10T01:41:05;18.40;99.90
66710;DHT22;53624;0.000;0.000;2023-05-10T01:43:37;18.40;99.90
66710;DHT22;53624;0.000;0.000;2023-05-10T01:46:10;18.40;99.90
66710;DHT22;53624;0.000;0.000;2023-05-10T01:48:42;18.40;99.90
66710;DHT22;53624;0.000;0.000;2023-05-10T01:51:14;18.40;99.90
66710;DHT22;53624;0.000;0.000;2023-05-10T01:53:44;18.40;99.90
66710;DHT22;53624;0.000;0.000;2023-05-10T01:56:13;18.40;99.90
66710;DHT22;53624;0.000;0.000;2023-05-10T01:58:42;18.40;99.90
66710;DHT22;53624;0.000;0.000;2023-05-10T02:01:11;18.40;99.90
66710;DHT22;53624;0.000;0.000;2023-05-10T02:03:41;18.40;99.90
66710;DHT22;53624;0.000;0.000;2023-05-10T02:06:10;18.30;99.90
66710;DHT22;53624;0.000;0.000;2023-05-10T02:08:38;18.30;99.90
66710;DHT22;53624;0.000;0.000;2023-05-10T02:11:06;18.30;99.90
66710;DHT22;53624;0.000;0.000;2023-05-10T02:13:34;18.30;99.90
66710;DHT22;53624;0.000;0.000;2023-05-10T02:16:03;18.30;99.90
66710;DHT22;53624;0.000;0.000;2023-05-10T02:18:30;18.30;99.90
66710;DHT22;53624;0.000;0.000;2023-05-10T02:21:00;18.30;99.90
66710;DHT22;53624;0.000;0.000;2023-05-10T02:23:29;18.30;99.90
66710;DHT22;53624;0.000;0.000;2023-05-10T02:25:57;18.30;99.90
66710;DHT22;53624;0.000;0.000;2023-05-10T02:28:25;18.30;99.90
66710;DHT22;53624;0.000;0.000;2023-05-10T02:30:55;18.30;99.90
66710;DHT22;53624;0.000;0.000;2023-05-10T02:33:23;18.30;99.90
66710;DHT22;53624;0.000;0.000;2023-05-10T02:35:51;18.30;99.90
66710;DHT22;53624;0.000;0.000;2023-05-10T02:38:21;18.20;99.90
66710;DHT22;53624;0.000;0.000;2023-05-10T02:40:49;18.20;99.90
66710;DHT22;53624;0.000;0.000;2023-05-10T02:43:17;18.20;99.90
66710;DHT22;53624;0.000;0.000;2023-05-10T02:45:46;18.20;99.90
66710;DHT22;53624;0.000;0.000;2023-05-10T02:48:14;18.20;99.90
66710;DHT22;53624;0.000;0.000;2023-05-10T02:50:42;18.20;99.90
66710;DHT22;53624;0.000;0.000;2023-05-10T02:53:11;18.20;99.90
66710;DHT22;53624;0.000;0.000;2023-05-10T02:55:43;18.20;99.90
66710;DHT22;53624;0.000;0.000;2023-05-10T02:58:13;18.20;99.90
66710;DHT22;53624;0.000;0.000;2023-05-10T03:00:41;18.20;99.90
66710;DHT22;53624;0.000;0.000;2023-05-10T03:03:08;18.10;99.90
66710;DHT22;53624;0.000;0.000;2023-05-10T03:05:35;18.20;99.90
66710;DHT22;53624;0.000;0.000;2023-05-10T03:08:04;18.20;99.90
66710;DHT22;53624;0.000;0.000;2023-05-10T03:10:32;18.20;99.90
66710;DHT22;53624;0.000;0.000;2023-05-10T03:13:13;18.10;99.90
66710;DHT22;53624;0.000;0.000;2023-05-10T03:15:46;18.20;99.90
66710;DHT22;53624;0.000;0.000;2023-05-10T03:18:15;18.10;99.90
66710;DHT22;53624;0.000;0.000;2023-05-10T03:20:46;18.10;99.90
66710;DHT22;53624;0.000;0.000;2023-05-10T03:23:21;18.10;99.90
66710;DHT22;53624;0.000;0.000;2023-05-10T03:25:50;18.10;99.90
66710;DHT22;53624;0.000;0.000;2023-05-10T03:28:20;18.10;99.90
66710;DHT22;53624;0.000;0.000;2023-05-10T03:30:47;18.10;99.90
66710;DHT22;53624;0.000;0.000;2023-05-10T03:33:16;18.00;99.90
66710;DHT22;53624;0.000;0.000;2023-05-10T03:35:46;18.00;99.90
66710;DHT22;53624;0.000;0.000;2023-05-10T03:38:14;18.00;99.90
66710;DHT22;53624;0.000;0.000;2023-05-10T03:40:41;18.00;99.90
66710;DHT22;53624;0.000;0.000;2023-05-10T03:43:09;18.00;99.90
66710;DHT22;53624;0.000;0.000;2023-05-10T03:45:38;18.00;99.90
66710;DHT22;53624;0.000;0.000;2023-05-10T03:48:05;18.00;99.90
66710;DHT22;53624;0.000;0.000;2023-05-10T03:50:33;18.00;99.90
66710;DHT22;53624;0.000;0.000;2023-05-10T03:53:00;18.00;99.90
66710;DHT22;53624;0.000;0.000;2023-05-10T03:55:28;18.00;99.90
66710;DHT22;53624;0.000;0.000;2023-05-10T03:57:56;18.00;99.90
66710;DHT22;53624;0.000;0.000;2023-05-10T04:00:24;18.00;99.90
66710;DHT22;53624;0.000;0.000;2023-05-10T04:02:55;18.00;99.90
66710;DHT22;53624;0.000;0.000;2023-05-10T04:05:23;18.00;99.90
66710;DHT22;53624;0.000;0.000;2023-05-10T04:07:52;18.00;99.90
66710;DHT22;53624;0.000;0.000;2023-05-10T04:10:20;17.90;99.90
66710;DHT22;53624;0.000;0.000;2023-05-10T04:12:47;17.90;99.90
66710;DHT22;53624;0.000;0.000;2023-05-10T04:15:15;18.00;99.90
66710;DHT22;53624;0.000;0.000;2023-05-10T04:17:43;17.90;99.90
66710;DHT22;53624;0.000;0.000;2023-05-10T04:20:12;17.90;99.90
66710;DHT22;53624;0.000;0.000;2023-05-10T04:22:40;17.90;99.90
66710;DHT22;53624;0.000;0.000;2023-05-10T04:25:07;17.90;99.90
66710;DHT22;53624;0.000;0.000;2023-05-10T04:27:35;17.90;99.90
66710;DHT22;53624;0.000;0.000;2023-05-10T04:30:03;17.90;99.90
66710;DHT22;53624;0.000;0.000;2023-05-10T04:32:31;17.90;99.90
66710;DHT22;53624;0.000;0.000;2023-05-10T04:34:58;17.90;99.90
66710;DHT22;53624;0.000;0.000;2023-05-10T04:37:27;17.90;99.90
66710;DHT22;53624;0.000;0.000;2023-05-10T04:39:55;17.90;99.90
66710;DHT22;53624;0.000;0.000;2023-05-10T04:42:22;17.90;99.90
66710;DHT22;53624;0.000;0.000;2023-05-10T04:44:50;17.90;99.90
66710;DHT22;53624;0.000;0.000;2023-05-10T04:47:18;17.80;99.90
66710;DHT22;53624;0.000;0.000;2023-05-10T04:49:45;17.90;99.90
66710;DHT22;53624;0.000;0.000;2023-05-10T04:52:12;17.80;99.90
66710;DHT22;53624;0.000;0.000;2023-05-10T04:54:42;17.80;99.90
66710;DHT22;53624;0.000;0.000;2023-05-10T04:57:10;17.80;99.90
66710;DHT22;53624;0.000;0.000;2023-05-10T04:59:37;17.80;99.90
66710;DHT22;53624;0.000;0.000;2023-05-10T05:02:05;17.80;99.90
66710;DHT22;53624;0.000;0.000;2023-05-10T05:04:32;17.80;99.90
66710;DHT22;53624;0.000;0.000;2023-05-10T05:07:00;17.80;99.90
66710;DHT22;53624;0.000;0.000;2023-05-10T05:09:27;17.80;99.90
66710;DHT22;53624;0.000;0.000;2023-05-10T05:11:56;17.80;99.90
66710;DHT22;53624;0.000;0.000;2023-05-10T05:14:24;17.80;99.90
66710;DHT22;53624;0.000;0.000;2023-05-10T05:16:52;17.80;99.90
66710;DHT22;53624;0.000;0.000;2023-05-10T05:19:19;17.90;99.90
66710;DHT22;53624;0.000;0.000;2023-05-10T05:21:47;17.90;99.90
66710;DHT22;53624;0.000;0.000;2023-05-10T05:24:14;17.90;99.90
66710;DHT22;53624;0.000;0.000;2023-05-10T05:26:42;17.90;99.90
66710;DHT22;53624;0.000;0.000;2023-05-10T05:29:11;17.90;99.90
66710;DHT22;53624;0.000;0.000;2023-05-10T05:31:38;17.90;99.90
66710;DHT22;53624;0.000;0.000;2023-05-10T05:34:05;17.90;99.90
66710;DHT22;53624;0.000;0.000;2023-05-10T05:36:35;17.90;99.90
66710;DHT22;53624;0.000;0.000;2023-05-10T05:39:04;17.90;99.90
66710;DHT22;53624;0.000;0.000;2023-05-10T05:41:31;17.90;99.90
66710;DHT22;53624;0.000;0.000;2023-05-10T05:43:59;17.90;99.90
66710;DHT22;53624;0.000;0.000;2023-05-10T05:46:28;17.90;99.90
66710;DHT22;53624;0.000;0.000;2023-05-10T05:48:55;18.00;99.90
66710;DHT22;53624;0.000;0.000;2023-05-10T05:51:23;18.00;99.90
66710;DHT22;53624;0.000;0.000;2023-05-10T05:53:51;18.00;99.90
66710;DHT22;53624;0.000;0.000;2023-05-10T05:56:18;17.90;99.90
66710;DHT22;53624;0.000;0.000;2023-05-10T05:58:50;18.00;99.90
66710;DHT22;53624;0.000;0.000;2023-05-10T06:01:18;18.00;99.90
66710;DHT22;53624;0.000;0.000;2023-05-10T06:03:47;18.00;99.90
66710;DHT22;53624;0.000;0.000;2023-05-10T06:06:15;18.00;99.90
66710;DHT22;53624;0.000;0.000;2023-05-10T06:08:42;18.10;99.90
66710;DHT22;53624;0.000;0.000;2023-05-10T06:11:10;18.10;99.90
66710;DHT22;53624;0.000;0.000;2023-05-10T06:13:37;18.10;99.90
66710;DHT22;53624;0.000;0.000;2023-05-10T06:16:05;18.10;99.90
66710;DHT22;53624;0.000;0.000;2023-05-10T06:18:32;18.20;99.90
66710;DHT22;53624;0.000;0.000;2023-05-10T06:21:02;18.20;99.90
66710;DHT22;53624;0.000;0.000;2023-05-10T06:23:29;18.20;99.90
66710;DHT22;53624;0.000;0.000;2023-05-10T06:25:57;18.20;99.90
66710;DHT22;53624;0.000;0.000;2023-05-10T06:28:24;18.30;99.90
66710;DHT22;53624;0.000;0.000;2023-05-10T06:30:51;18.30;99.90
66710;DHT22;53624;0.000;0.000;2023-05-10T06:33:19;18.30;99.90
66710;DHT22;53624;0.000;0.000;2023-05-10T06:35:46;18.30;99.90
66710;DHT22;53624;0.000;0.000;2023-05-10T06:38:15;18.40;99.90
66710;DHT22;53624;0.000;0.000;2023-05-10T06:40:43;18.40;99.90
66710;DHT22;53624;0.000;0.000;2023-05-10T06:43:11;18.50;99.90
66710;DHT22;53624;0.000;0.000;2023-05-10T06:45:39;18.60;99.90
66710;DHT22;53624;0.000;0.000;2023-05-10T06:48:06;18.60;99.90
66710;DHT22;53624;0.000;0.000;2023-05-10T06:50:34;18.70;99.90
66710;DHT22;53624;0.000;0.000;2023-05-10T06:53:19;18.80;99.90
66710;DHT22;53624;0.000;0.000;2023-05-10T06:55:46;18.90;99.90
66710;DHT22;53624;0.000;0.000;2023-05-10T06:58:14;19.00;99.90
66710;DHT22;53624;0.000;0.000;2023-05-10T07:00:41;19.10;99.90
66710;DHT22;53624;0.000;0.000;2023-05-10T07:03:09;19.20;99.90
66710;DHT22;53624;0.000;0.000;2023-05-10T07:05:37;19.20;99.90
66710;DHT22;53624;0.000;0.000;2023-05-10T07:08:04;19.30;99.90
66710;DHT22;53624;0.000;0.000;2023-05-10T07:10:34;19.30;99.90
66710;DHT22;53624;0.000;0.000;2023-05-10T07:13:01;19.30;99.90
66710;DHT22;53624;0.000;0.000;2023-05-10T07:15:29;19.30;99.90
66710;DHT22;53624;0.000;0.000;2023-05-10T07:17:56;19.20;99.90
66710;DHT22;53624;0.000;0.000;2023-05-10T07:20:24;19.30;99.90
66710;DHT22;53624;0.000;0.000;2023-05-10T07:22:51;19.30;99.90
66710;DHT22;53624;0.000;0.000;2023-05-10T07:25:19;19.30;99.90
66710;DHT22;53624;0.000;0.000;2023-05-10T07:27:48;19.50;99.50
66710;DHT22;53624;0.000;0.000;2023-05-10T07:30:15;20.20;99.00
66710;DHT22;53624;0.000;0.000;2023-05-10T07:32:43;20.70;97.50
66710;DHT22;53624;0.000;0.000;2023-05-10T07:35:10;20.20;98.20
66710;DHT22;53624;0.000;0.000;2023-05-10T07:37:38;19.90;98.80
66710;DHT22;53624;0.000;0.000;2023-05-10T07:40:06;19.70;99.20
66710;DHT22;53624;0.000;0.000;2023-05-10T07:42:34;19.60;99.50
66710;DHT22;53624;0.000;0.000;2023-05-10T07:45:03;19.50;99.60
66710;DHT22;53624;0.000;0.000;2023-05-10T07:47:31;19.50;99.90
66710;DHT22;53624;0.000;0.000;2023-05-10T07:49:59;19.50;99.80
66710;DHT22;53624;0.000;0.000;2023-05-10T07:52:26;19.50;99.90
66710;DHT22;53624;0.000;0.000;2023-05-10T07:54:54;19.50;99.90
66710;DHT22;53624;0.000;0.000;2023-05-10T07:57:23;19.50;99.80
66710;DHT22;53624;0.000;0.000;2023-05-10T07:59:50;19.50;99.90
66710;DHT22;53624;0.000;0.000;2023-05-10T08:02:19;19.50;99.80
66710;DHT22;53624;0.000;0.000;2023-05-10T08:04:46;19.50;99.80
66710;DHT22;53624;0.000;0.000;2023-05-10T08:07:14;19.50;99.80
66710;DHT22;53624;0.000;0.000;2023-05-10T08:09:42;19.50;99.70
66710;DHT22;53624;0.000;0.000;2023-05-10T08:12:09;19.80;99.60
66710;DHT22;53624;0.000;0.000;2023-05-10T08:14:37;19.80;99.20
66710;DHT22;53624;0.000;0.000;2023-05-10T08:17:04;19.80;99.20
66710;DHT22;53624;0.000;0.000;2023-05-10T08:19:33;19.80;99.20
66710;DHT22;53624;0.000;0.000;2023-05-10T08:22:01;20.20;98.40
66710;DHT22;53624;0.000;0.000;2023-05-10T08:24:28;20.40;98.00
66710;DHT22;53624;0.000;0.000;2023-05-10T08:26:55;20.60;98.00
66710;DHT22;53624;0.000;0.000;2023-05-10T08:29:23;21.10;97.00
66710;DHT22;53624;0.000;0.000;2023-05-10T08:31:50;21.00;96.80
66710;DHT22;53624;0.000;0.000;2023-05-10T08:34:18;21.00;97.20
66710;DHT22;53624;0.000;0.000;2023-05-10T08:36:47;21.20;96.80
66710;DHT22;53624;0.000;0.000;2023-05-10T08:39:14;21.40;96.40
66710;DHT22;53624;0.000;0.000;2023-05-10T08:41:42;21.30;96.70
66710;DHT22;53624;0.000;0.000;2023-05-10T08:44:10;21.70;96.00
66710;DHT22;53624;0.000;0.000;2023-05-10T08:46:38;22.10;95.40
66710;DHT22;53624;0.000;0.000;2023-05-10T08:49:09;22.30;95.20
66710;DHT22;53624;0.000;0.000;2023-05-10T08:51:40;22.70;94.60
66710;DHT22;53624;0.000;0.000;2023-05-10T08:54:09;23.10;94.10
66710;DHT22;53624;0.000;0.000;2023-05-10T08:56:37;23.40;93.60
66710;DHT22;53624;0.000;0.000;2023-05-10T08:59:04;23.40;93.10
66710;DHT22;53624;0.000;0.000;2023-05-10T09:01:31;23.60;92.90
66710;DHT22;53624;0.000;0.000;2023-05-10T09:03:59;23.20;93.10
66710;DHT22;53624;0.000;0.000;2023-05-10T09:06:27;22.90;93.40
66710;DHT22;53624;0.000;0.000;2023-05-10T09:08:54;22.60;93.90
66710;DHT22;53624;0.000;0.000;2023-05-10T09:11:23;22.50;94.20
66710;DHT22;53624;0.000;0.000;2023-05-10T09:13:51;22.80;93.70
66710;DHT22;53624;0.000;0.000;2023-05-10T09:16:19;23.00;93.10
66710;DHT22;53624;0.000;0.000;2023-05-10T09:18:47;22.80;93.30
66710;DHT22;53624;0.000;0.000;2023-05-10T09:21:15;22.90;93.40
66710;DHT22;53624;0.000;0.000;2023-05-10T09:23:42;22.90;93.30
66710;DHT22;53624;0.000;0.000;2023-05-10T09:26:10;22.70;93.50
66710;DHT22;53624;0.000;0.000;2023-05-10T09:28:51;22.50;93.60
66710;DHT22;53624;0.000;0.000;2023-05-10T09:31:18;22.40;93.90
66710;DHT22;53624;0.000;0.000;2023-05-10T09:33:46;22.20;94.00
66710;DHT22;53624;0.000;0.000;2023-05-10T09:36:14;22.20;93.80
66710;DHT22;53624;0.000;0.000;2023-05-10T09:38:45;22.10;93.80
66710;DHT22;53624;0.000;0.000;2023-05-10T09:41:17;22.10;93.80
66710;DHT22;53624;0.000;0.000;2023-05-10T09:43:44;22.00;93.80
66710;DHT22;53624;0.000;0.000;2023-05-10T09:46:13;22.00;93.80
66710;DHT22;53624;0.000;0.000;2023-05-10T09:48:42;22.00;93.60
66710;DHT22;53624;0.000;0.000;2023-05-10T09:51:09;22.00;93.50
66710;DHT22;53624;0.000;0.000;2023-05-10T09:53:37;22.30;92.90
66710;DHT22;53624;0.000;0.000;2023-05-10T09:56:05;22.70;92.50
66710;DHT22;53624;0.000;0.000;2023-05-10T09:58:35;22.70;92.40
66710;DHT22;53624;0.000;0.000;2023-05-10T10:01:03;22.70;92.60
66710;DHT22;53624;0.000;0.000;2023-05-10T10:03:32;22.70;92.60
66710;DHT22;53624;0.000;0.000;2023-05-10T10:06:00;22.60;92.90
66710;DHT22;53624;0.000;0.000;2023-05-10T10:08:27;22.80;92.70
66710;DHT22;53624;0.000;0.000;2023-05-10T10:10:55;23.00;92.50
66710;DHT22;53624;0.000;0.000;2023-05-10T10:13:22;22.90;92.50
66710;DHT22;53624;0.000;0.000;2023-05-10T10:15:50;22.80;92.30
66710;DHT22;53624;0.000;0.000;2023-05-10T10:18:18;22.80;92.50
66710;DHT22;53624;0.000;0.000;2023-05-10T10:20:51;22.80;92.50
66710;DHT22;53624;0.000;0.000;2023-05-10T10:23:19;22.70;92.20
66710;DHT22;53624;0.000;0.000;2023-05-10T10:25:46;22.50;92.10
66710;DHT22;53624;0.000;0.000;2023-05-10T10:28:16;22.40;92.00
66710;DHT22;53624;0.000;0.000;2023-05-10T10:30:50;22.30;92.10
66710;DHT22;53624;0.000;0.000;2023-05-10T10:33:28;22.20;92.20
66710;DHT22;53624;0.000;0.000;2023-05-10T10:36:00;22.10;92.30
66710;DHT22;53624;0.000;0.000;2023-05-10T10:38:35;22.00;92.70
66710;DHT22;53624;0.000;0.000;2023-05-10T10:41:08;21.90;92.00
66710;DHT22;53624;0.000;0.000;2023-05-10T10:43:36;21.80;92.00
66710;DHT22;53624;0.000;0.000;2023-05-10T10:46:10;21.80;91.50
66710;DHT22;53624;0.000;0.000;2023-05-10T10:48:38;21.80;91.50
66710;DHT22;53624;0.000;0.000;2023-05-10T10:51:07;21.80;90.90
66710;DHT22;53624;0.000;0.000;2023-05-10T10:53:35;21.80;91.30
66710;DHT22;53624;0.000;0.000;2023-05-10T10:56:07;21.80;91.30
66710;DHT22;53624;0.000;0.000;2023-05-10T10:58:35;21.90;91.10
66710;DHT22;53624;0.000;0.000;2023-05-10T11:01:13;22.00;91.40
66710;DHT22;53624;0.000;0.000;2023-05-10T11:04:04;22.10;91.90
66710;DHT22;53624;0.000;0.000;2023-05-10T11:06:30;22.10;91.90
66710;DHT22;53624;0.000;0.000;2023-05-10T11:08:59;22.20;91.60
66710;DHT22;53624;0.000;0.000;2023-05-10T11:11:27;22.30;91.60
66710;DHT22;53624;0.000;0.000;2023-05-10T11:13:55;22.40;91.80
66710;DHT22;53624;0.000;0.000;2023-05-10T11:16:29;22.40;92.60
66710;DHT22;53624;0.000;0.000;2023-05-10T11:19:07;22.40;92.60
66710;DHT22;53624;0.000;0.000;2023-05-10T11:21:45;22.50;92.70
66710;DHT22;53624;0.000;0.000;2023-05-10T11:24:13;22.60;92.90
66710;DHT22;53624;0.000;0.000;2023-05-10T11:26:41;22.60;92.40
66710;DHT22;53624;0.000;0.000;2023-05-10T11:29:09;22.60;91.90
66710;DHT22;53624;0.000;0.000;2023-05-10T11:31:41;22.80;92.10
66710;DHT22;53624;0.000;0.000;2023-05-10T11:34:09;22.80;91.80
66710;DHT22;53624;0.000;0.000;2023-05-10T11:36:37;22.90;91.50
66710;DHT22;53624;0.000;0.000;2023-05-10T11:39:06;23.00;91.60
66710;DHT22;53624;0.000;0.000;2023-05-10T11:41:33;23.10;91.60
66710;DHT22;53624;0.000;0.000;2023-05-10T11:44:01;23.20;91.50
66710;DHT22;53624;0.000;0.000;2023-05-10T11:46:28;23.10;91.70
66710;DHT22;53624;0.000;0.000;2023-05-10T11:48:57;23.00;91.60
66710;DHT22;53624;0.000;0.000;2023-05-10T11:51:26;23.00;91.90
66710;DHT22;53624;0.000;0.000;2023-05-10T11:53:55;23.00;92.10
66710;DHT22;53624;0.000;0.000;2023-05-10T11:56:24;23.10;91.40
66710;DHT22;53624;0.000;0.000;2023-05-10T11:58:52;23.10;91.80
66710;DHT22;53624;0.000;0.000;2023-05-10T12:01:20;23.10;91.90
66710;DHT22;53624;0.000;0.000;2023-05-10T12:03:48;23.10;91.60
66710;DHT22;53624;0.000;0.000;2023-05-10T12:06:16;23.30;91.20
66710;DHT22;53624;0.000;0.000;2023-05-10T12:08:44;23.50;90.90
66710;DHT22;53624;0.000;0.000;2023-05-10T12:11:12;23.70;90.60
66710;DHT22;53624;0.000;0.000;2023-05-10T12:13:42;23.80;90.60
66710;DHT22;53624;0.000;0.000;2023-05-10T12:16:12;23.90;90.30
66710;DHT22;53624;0.000;0.000;2023-05-10T12:18:40;23.80;90.10
66710;DHT22;53624;0.000;0.000;2023-05-10T12:21:09;23.70;90.10
66710;DHT22;53624;0.000;0.000;2023-05-10T12:23:36;23.70;90.10
66710;DHT22;53624;0.000;0.000;2023-05-10T12:26:04;23.70;90.20
66710;DHT22;53624;0.000;0.000;2023-05-10T12:28:32;23.70;90.10
66710;DHT22;53624;0.000;0.000;2023-05-10T12:31:01;23.70;90.10
66710;DHT22;53624;0.000;0.000;2023-05-10T12:33:35;23.80;90.00
66710;DHT22;53624;0.000;0.000;2023-05-10T12:36:02;23.90;90.00
66710;DHT22;53624;0.000;0.000;2023-05-10T12:38:32;23.80;90.00
66710;DHT22;53624;0.000;0.000;2023-05-10T12:41:00;23.70;90.10
66710;DHT22;53624;0.000;0.000;2023-05-10T12:43:28;23.60;90.10
66710;DHT22;53624;0.000;0.000;2023-05-10T12:45:56;23.50;90.20
66710;DHT22;53624;0.000;0.000;2023-05-10T12:48:25;23.50;90.30
66710;DHT22;53624;0.000;0.000;2023-05-10T12:50:54;23.40;90.30
66710;DHT22;53624;0.000;0.000;2023-05-10T12:53:22;23.30;90.50
66710;DHT22;53624;0.000;0.000;2023-05-10T12:55:49;23.20;90.60
66710;DHT22;53624;0.000;0.000;2023-05-10T12:58:17;23.10;90.60
66710;DHT22;53624;0.000;0.000;2023-05-10T13:00:44;23.00;90.60
66710;DHT22;53624;0.000;0.000;2023-05-10T13:03:12;23.00;90.80
66710;DHT22;53624;0.000;0.000;2023-05-10T13:05:41;23.00;90.80
66710;DHT22;53624;0.000;0.000;2023-05-10T13:08:10;23.00;90.80
66710;DHT22;53624;0.000;0.000;2023-05-10T13:10:37;23.00;90.80
66710;DHT22;53624;0.000;0.000;2023-05-10T13:13:05;22.90;90.80
66710;DHT22;53624;0.000;0.000;2023-05-10T13:15:33;23.00;90.80
66710;DHT22;53624;0.000;0.000;2023-05-10T13:18:01;22.90;90.80
66710;DHT22;53624;0.000;0.000;2023-05-10T13:20:28;22.90;90.90
66710;DHT22;53624;0.000;0.000;2023-05-10T13:22:58;22.90;90.60
66710;DHT22;53624;0.000;0.000;2023-05-10T13:25:25;22.90;90.80
66710;DHT22;53624;0.000;0.000;2023-05-10T13:27:53;22.80;91.60
66710;DHT22;53624;0.000;0.000;2023-05-10T13:30:20;22.80;91.30
66710;DHT22;53624;0.000;0.000;2023-05-10T13:32:48;22.70;91.40
66710;DHT22;53624;0.000;0.000;2023-05-10T13:35:16;22.60;91.70
66710;DHT22;53624;0.000;0.000;2023-05-10T13:37:43;22.50;92.00
66710;DHT22;53624;0.000;0.000;2023-05-10T13:40:12;22.40;91.80
66710;DHT22;53624;0.000;0.000;2023-05-10T13:42:41;22.40;92.10
66710;DHT22;53624;0.000;0.000;2023-05-10T13:45:09;22.30;91.90
66710;DHT22;53624;0.000;0.000;2023-05-10T13:47:37;22.20;92.00
66710;DHT22;53624;0.000;0.000;2023-05-10T13:50:05;22.20;91.70
66710;DHT22;53624;0.000;0.000;2023-05-10T13:52:33;22.10;92.00
66710;DHT22;53624;0.000;0.000;2023-05-10T13:55:01;22.00;92.30
66710;DHT22;53624;0.000;0.000;2023-05-10T13:57:30;21.70;90.70
66710;DHT22;53624;0.000;0.000;2023-05-10T13:59:58;21.50;87.20
66710;DHT22;53624;0.000;0.000;2023-05-10T14:02:25;21.30;86.40
66710;DHT22;53624;0.000;0.000;2023-05-10T14:04:53;21.20;85.40
66710;DHT22;53624;0.000;0.000;2023-05-10T14:07:20;21.10;83.50
66710;DHT22;53624;0.000;0.000;2023-05-10T14:09:48;21.20;84.60
66710;DHT22;53624;0.000;0.000;2023-05-10T14:12:15;21.40;85.60
66710;DHT22;53624;0.000;0.000;2023-05-10T14:14:44;21.60;85.30
66710;DHT22;53624;0.000;0.000;2023-05-10T14:17:12;21.60;86.20
66710;DHT22;53624;0.000;0.000;2023-05-10T14:19:39;21.70;86.60
66710;DHT22;53624;0.000;0.000;2023-05-10T14:22:07;21.70;87.40
66710;DHT22;53624;0.000;0.000;2023-05-10T14:24:35;21.70;88.70
66710;DHT22;53624;0.000;0.000;2023-05-10T14:27:02;21.70;87.60
66710;DHT22;53624;0.000;0.000;2023-05-10T14:29:30;21.70;90.30
66710;DHT22;53624;0.000;0.000;2023-05-10T14:31:58;21.70;90.70
66710;DHT22;53624;0.000;0.000;2023-05-10T14:34:26;21.70;90.80
66710;DHT22;53624;0.000;0.000;2023-05-10T14:36:53;21.70;91.00
66710;DHT22;53624;0.000;0.000;2023-05-10T14:39:21;21.70;91.20
66710;DHT22;53624;0.000;0.000;2023-05-10T14:41:48;21.70;91.50
66710;DHT22;53624;0.000;0.000;2023-05-10T14:44:17;21.70;91.00
66710;DHT22;53624;0.000;0.000;2023-05-10T14:46:44;21.70;91.00
66710;DHT22;53624;0.000;0.000;2023-05-10T14:49:13;21.70;91.40
66710;DHT22;53624;0.000;0.000;2023-05-10T14:51:41;21.70;91.20
66710;DHT22;53624;0.000;0.000;2023-05-10T14:54:09;21.70;91.00
66710;DHT22;53624;0.000;0.000;2023-05-10T14:56:36;21.60;90.70
66710;DHT22;53624;0.000;0.000;2023-05-10T14:59:04;21.60;90.70
66710;DHT22;53624;0.000;0.000;2023-05-10T15:01:31;21.60;91.00
66710;DHT22;53624;0.000;0.000;2023-05-10T15:04:00;21.60;91.30
66710;DHT22;53624;0.000;0.000;2023-05-10T15:06:32;21.60;91.20
66710;DHT22;53624;0.000;0.000;2023-05-10T15:09:00;21.50;91.00
66710;DHT22;53624;0.000;0.000;2023-05-10T15:11:27;21.50;90.80
66710;DHT22;53624;0.000;0.000;2023-05-10T15:13:55;21.60;91.40
66710;DHT22;53624;0.000;0.000;2023-05-10T15:16:22;21.60;91.00
66710;DHT22;53624;0.000;0.000;2023-05-10T15:18:50;21.60;91.00
66710;DHT22;53624;0.000;0.000;2023-05-10T15:21:17;21.60;91.30
66710;DHT22;53624;0.000;0.000;2023-05-10T15:23:46;21.60;91.30
66710;DHT22;53624;0.000;0.000;2023-05-10T15:26:14;21.60;91.10
66710;DHT22;53624;0.000;0.000;2023-05-10T15:28:41;21.60;91.30
66710;DHT22;53624;0.000;0.000;2023-05-10T15:31:09;21.60;91.10
66710;DHT22;53624;0.000;0.000;2023-05-10T15:33:37;21.70;91.00
66710;DHT22;53624;0.000;0.000;2023-05-10T15:36:04;21.70;91.30
66710;DHT22;53624;0.000;0.000;2023-05-10T15:38:32;21.70;91.40
66710;DHT22;53624;0.000;0.000;2023-05-10T15:41:01;21.70;91.30
66710;DHT22;53624;0.000;0.000;2023-05-10T15:43:28;21.70;91.30
66710;DHT22;53624;0.000;0.000;2023-05-10T15:45:56;21.70;91.00
66710;DHT22;53624;0.000;0.000;2023-05-10T15:48:25;21.70;90.90
66710;DHT22;53624;0.000;0.000;2023-05-10T15:50:53;21.70;90.80
66710;DHT22;53624;0.000;0.000;2023-05-10T15:53:20;21.70;91.20